Time;durP1;ratioP1;P1;durP2;ratioP2;P2;SDS_P1;SDS_P2;PMS_P1;PMS_P2;Temp;Humidity;BMP_temperature;BMP_pressure;BME280_temperature;BME280_humidity;BME280_pressure;Samples;Min_cycle;Max_cycle;Signal;HPM_P1;HPM_P2
2021/12/06 00:00:08;;;;;;;30.88;21.68;;;;;;;2.28;77.67;100956.34;1772943;79;20944;-81
2021/12/06 00:02:34;;;;;;;31.55;21.62;;;;;;;2.25;77.45;100952.09;1773003;81;20852;-80
2021/12/06 00:05:01;;;;;;;26.07;18.65;;;;;;;2.22;77.36;100952.58;1773224;81;20995;-80
2021/12/06 00:07:29;;;;;;;29.90;18.92;;;;;;;2.19;77.45;100952.20;1772786;79;21521;-79
2021/12/06 00:09:57;;;;;;;26.12;18.85;;;;;;;2.19;77.52;100956.09;1772759;80;20833;-79
2021/12/06 00:12:26;;;;;;;29.65;19.85;;;;;;;2.22;77.55;100960.34;1773107;80;20920;-79
2021/12/06 00:14:52;;;;;;;24.75;17.77;;;;;;;2.21;77.43;100950.89;1772908;81;20876;-78
2021/12/06 00:17:19;;;;;;;25.72;18.92;;;;;;;2.22;77.46;100948.28;1773062;81;20845;-80
2021/12/06 00:19:46;;;;;;;26.73;18.70;;;;;;;2.21;77.51;100944.42;1773211;80;21158;-80
2021/12/06 00:22:21;;;;;;;25.48;17.05;;;;;;;2.24;77.56;100943.05;1772852;80;20975;-79
2021/12/06 00:24:45;;;;;;;27.37;19.10;;;;;;;2.24;77.28;100943.91;1772872;80;20864;-78
2021/12/06 00:27:12;;;;;;;24.02;16.48;;;;;;;2.19;77.15;100942.31;1772969;79;21044;-80
2021/12/06 00:29:39;;;;;;;23.32;15.93;;;;;;;2.16;77.18;100943.67;1773726;80;20915;-77
2021/12/06 00:32:07;;;;;;;25.37;18.12;;;;;;;2.12;77.21;100935.11;1773079;80;21134;-79
2021/12/06 00:34:34;;;;;;;25.52;16.70;;;;;;;2.11;77.26;100932.55;1773052;81;20888;-79
2021/12/06 00:37:20;;;;;;;29.75;18.15;;;;;;;2.11;77.41;100931.25;1772814;80;21425;-80
2021/12/06 00:39:54;;;;;;;28.10;18.52;;;;;;;2.13;77.63;100938.09;1773527;79;20924;-79
2021/12/06 00:42:24;;;;;;;24.25;16.45;;;;;;;2.18;77.82;100938.00;1772920;79;21476;-79
2021/12/06 00:44:51;;;;;;;26.82;18.23;;;;;;;2.23;77.54;100943.95;1773182;81;21113;-79
2021/12/06 00:47:18;;;;;;;27.05;18.52;;;;;;;2.22;77.48;100944.82;1772753;81;20870;-79
2021/12/06 00:49:47;;;;;;;28.45;18.57;;;;;;;2.21;77.48;100937.95;1773081;80;20915;-78
2021/12/06 00:52:14;;;;;;;28.35;19.75;;;;;;;2.23;77.58;100942.22;1772727;81;20955;-81
2021/12/06 00:54:41;;;;;;;25.65;17.75;;;;;;;2.25;77.62;100937.86;1773189;80;21337;-81
2021/12/06 00:57:09;;;;;;;27.60;18.82;;;;;;;2.28;77.45;100939.08;1773015;81;21534;-80
2021/12/06 00:59:36;;;;;;;28.02;19.80;;;;;;;2.27;77.33;100943.02;1772796;81;20876;-80
2021/12/06 01:02:04;;;;;;;28.12;18.57;;;;;;;2.26;77.25;100938.70;1772787;79;20896;-80
2021/12/06 01:04:35;;;;;;;24.72;17.67;;;;;;;2.24;77.23;100941.31;1772794;80;22237;-80
2021/12/06 01:07:04;;;;;;;28.25;17.82;;;;;;;2.20;77.18;100938.41;1773430;80;21100;-81
2021/12/06 01:09:31;;;;;;;27.05;18.07;;;;;;;2.16;77.39;100937.20;1778668;80;21132;-79
2021/12/06 01:11:58;;;;;;;24.45;17.00;;;;;;;2.15;77.72;100925.98;1778691;80;21053;-79
2021/12/06 01:14:25;;;;;;;28.00;18.65;;;;;;;2.18;77.65;100932.83;1778640;80;20947;-81
2021/12/06 01:16:52;;;;;;;24.60;17.75;;;;;;;2.18;77.73;100931.11;1778510;79;21498;-78
2021/12/06 01:25:03;;;;;;;27.93;18.23;;;;;;;2.30;77.87;100933.04;1759738;80;20935;-79
2021/12/06 01:30:54;;;;;;;24.50;16.82;;;;;;;2.34;77.66;100920.45;1758238;80;20916;-78
2021/12/06 01:40:31;;;;;;;23.45;16.23;;;;;;;2.34;77.23;100909.65;1758353;81;21157;-79
2021/12/06 01:43:05;;;;;;;24.32;16.05;;;;;;;2.33;77.23;100905.79;1758280;80;21974;-79
2021/12/06 01:45:32;;;;;;;23.85;15.98;;;;;;;2.35;77.38;100903.58;1758362;81;20896;-78
2021/12/06 01:47:59;;;;;;;29.52;16.02;;;;;;;2.38;77.33;100900.06;1758677;81;21350;-79
2021/12/06 01:50:28;;;;;;;22.30;16.17;;;;;;;2.39;77.23;100890.98;1758322;80;20967;-78
2021/12/06 01:53:01;;;;;;;23.18;16.05;;;;;;;2.40;76.98;100897.00;1758317;80;21197;-79
2021/12/06 01:55:32;;;;;;;26.68;15.10;;;;;;;2.32;76.88;100904.95;1758364;80;20908;-77
2021/12/06 01:58:00;;;;;;;22.80;14.58;;;;;;;2.25;76.91;100899.50;1758202;81;20979;-79
2021/12/06 02:00:33;;;;;;;26.00;15.95;;;;;;;2.23;76.87;100902.55;1758448;81;20951;-78
2021/12/06 02:03:01;;;;;;;21.17;14.23;;;;;;;2.20;77.12;100903.89;1758468;80;20891;-78
2021/12/06 02:05:30;;;;;;;19.45;14.33;;;;;;;2.22;77.45;100903.01;1757997;80;21145;-79
2021/12/06 02:07:57;;;;;;;22.05;15.08;;;;;;;2.24;77.37;100912.01;1758304;80;21326;-79
2021/12/06 02:10:24;;;;;;;22.73;15.85;;;;;;;2.26;77.29;100915.42;1758270;80;20892;-78
2021/12/06 02:12:53;;;;;;;22.75;15.93;;;;;;;2.26;77.25;100921.44;1758462;80;20901;-78
2021/12/06 02:18:13;;;;;;;27.37;18.27;;;;;;;2.21;77.16;100914.22;1758846;80;21196;-78
2021/12/06 02:20:50;;;;;;;28.20;17.67;;;;;;;2.19;77.30;100916.44;1758470;81;20849;-79
2021/12/06 02:23:16;;;;;;;29.30;18.55;;;;;;;2.23;77.32;100909.87;1758462;81;20991;-80
2021/12/06 02:25:43;;;;;;;23.22;16.80;;;;;;;2.24;77.19;100914.14;1758938;81;21002;-80
2021/12/06 02:28:11;;;;;;;26.25;17.23;;;;;;;2.26;77.37;100921.89;1758589;81;20857;-78
2021/12/06 02:30:38;;;;;;;23.32;17.02;;;;;;;2.26;77.29;100920.14;1758972;81;21088;-79
2021/12/06 02:33:05;;;;;;;28.50;17.67;;;;;;;2.25;77.13;100921.04;1758310;81;21093;-79
2021/12/06 02:35:34;;;;;;;25.92;17.82;;;;;;;2.22;77.24;100923.70;1758066;81;20868;-78
2021/12/06 02:38:06;;;;;;;28.95;16.65;;;;;;;2.20;77.15;100922.00;1757969;80;20935;-78
2021/12/06 02:40:32;;;;;;;30.92;18.48;;;;;;;2.14;77.24;100919.57;1757877;81;20999;-79
2021/12/06 02:42:59;;;;;;;28.80;18.25;;;;;;;2.06;77.37;100919.26;1758329;81;21121;-78
2021/12/06 02:45:27;;;;;;;26.97;17.52;;;;;;;2.02;77.60;100922.81;1758238;80;21469;-79
2021/12/06 02:47:56;;;;;;;28.75;17.32;;;;;;;2.01;77.63;100923.68;1758016;81;20865;-80
2021/12/06 02:50:28;;;;;;;32.50;19.37;;;;;;;1.98;77.68;100917.28;1758225;81;20888;-80
2021/12/06 02:52:56;;;;;;;24.47;16.95;;;;;;;1.98;77.73;100925.05;1758251;81;20975;-80
2021/12/06 02:55:51;;;;;;;25.57;17.23;;;;;;;1.95;77.79;100927.67;1757991;81;21046;-79
2021/12/06 02:57:56;;;;;;;28.47;17.85;;;;;;;1.95;77.87;100927.67;1751982;81;20888;-80
2021/12/06 03:00:22;;;;;;;27.75;15.72;;;;;;;1.95;78.04;100924.24;1758488;80;20896;-80
2021/12/06 03:02:49;;;;;;;27.58;17.65;;;;;;;1.95;78.06;100921.20;1758221;81;20877;-82
2021/12/06 03:05:16;;;;;;;29.10;18.42;;;;;;;1.97;78.16;100924.62;1758689;81;20959;-79
2021/12/06 03:07:47;;;;;;;27.58;18.35;;;;;;;2.01;78.23;100933.18;1758078;80;21286;-79
2021/12/06 03:10:13;;;;;;;32.05;17.85;;;;;;;2.05;78.12;100934.83;1758549;80;20986;-78
2021/12/06 03:12:40;;;;;;;26.82;19.10;;;;;;;2.07;78.04;100935.66;1758467;80;21303;-79
2021/12/06 03:15:07;;;;;;;26.62;18.85;;;;;;;2.06;77.97;100942.53;1740911;81;20936;-78
2021/12/06 03:17:34;;;;;;;31.00;17.77;;;;;;;2.06;77.89;100936.07;1758146;81;20928;-79
2021/12/06 03:20:02;;;;;;;31.85;19.35;;;;;;;2.04;77.92;100935.70;1758406;81;21658;-78
2021/12/06 03:22:31;;;;;;;27.22;17.52;;;;;;;2.00;77.96;100941.39;1745786;80;20917;-78
2021/12/06 03:24:58;;;;;;;28.35;18.05;;;;;;;1.98;78.11;100938.39;1744949;81;20890;-78
2021/12/06 03:27:25;;;;;;;26.70;17.20;;;;;;;1.98;78.17;100938.39;1744680;81;20936;-77
2021/12/06 03:29:54;;;;;;;28.67;18.17;;;;;;;1.98;78.21;100934.52;1744821;81;21323;-77
2021/12/06 03:32:21;;;;;;;34.25;18.90;;;;;;;1.97;78.22;100933.67;1744678;81;22023;-77
2021/12/06 03:34:48;;;;;;;28.57;18.98;;;;;;;1.95;78.29;100933.30;1745008;81;20990;-77
2021/12/06 03:37:15;;;;;;;30.40;19.45;;;;;;;1.94;78.36;100929.86;1744582;81;20971;-77
2021/12/06 03:39:47;;;;;;;32.25;20.68;;;;;;;1.93;78.32;100925.55;1744755;81;20889;-76
2021/12/06 03:42:17;;;;;;;30.10;18.62;;;;;;;1.89;78.35;100932.11;1744680;80;21024;-76
2021/12/06 03:44:45;;;;;;;24.25;17.35;;;;;;;1.85;78.43;100931.34;1744875;81;21126;-78
2021/12/06 03:47:16;;;;;;;32.48;17.48;;;;;;;1.80;78.48;100932.72;1744724;81;20944;-79
2021/12/06 03:49:43;;;;;;;27.20;16.65;;;;;;;1.79;78.63;100930.16;1744997;81;21355;-79
2021/12/06 03:52:13;;;;;;;28.57;18.60;;;;;;;1.76;78.68;100925.05;1745113;81;20913;-79
2021/12/06 03:54:42;;;;;;;29.35;18.48;;;;;;;1.74;78.78;100920.34;1744999;81;20877;-78
2021/12/06 03:57:14;;;;;;;34.23;19.40;;;;;;;1.74;78.96;100921.64;1744689;81;20842;-79
2021/12/06 03:59:42;;;;;;;28.02;17.45;;;;;;;1.76;78.84;100923.31;1744845;81;20898;-79
2021/12/06 04:02:11;;;;;;;28.42;18.37;;;;;;;1.78;78.72;100921.55;1744921;81;20917;-78
2021/12/06 04:04:40;;;;;;;30.77;20.12;;;;;;;1.79;78.77;100924.53;1744914;81;21449;-77
2021/12/06 04:07:08;;;;;;;31.93;20.55;;;;;;;1.78;78.70;100920.67;1745207;81;21402;-78
2021/12/06 04:09:36;;;;;;;29.10;20.57;;;;;;;1.79;78.74;100918.52;1744986;81;21390;-79
2021/12/06 04:12:07;;;;;;;34.03;21.73;;;;;;;1.80;78.64;100920.20;1744561;81;20885;-77
2021/12/06 04:14:35;;;;;;;32.15;20.10;;;;;;;1.79;78.59;100910.31;1744879;81;20916;-78
2021/12/06 04:17:02;;;;;;;30.85;19.12;;;;;;;1.81;78.42;100922.77;1744595;81;20937;-78
2021/12/06 04:19:29;;;;;;;34.88;20.48;;;;;;;1.81;78.30;100921.92;1744627;81;21426;-81
2021/12/06 04:21:56;;;;;;;32.48;18.57;;;;;;;1.78;78.33;100917.67;1751713;80;21542;-79
2021/12/06 04:24:23;;;;;;;28.42;17.95;;;;;;;1.79;78.32;100923.69;1757997;81;20873;-78
2021/12/06 04:26:51;;;;;;;31.57;20.30;;;;;;;1.79;78.37;100917.22;1757849;81;20920;-80
2021/12/06 04:29:18;;;;;;;34.25;20.17;;;;;;;1.79;78.28;100915.48;1757954;81;20912;-78
2021/12/06 04:31:53;;;;;;;33.65;21.60;;;;;;;1.79;78.22;100921.95;1741186;81;20891;-79
2021/12/06 04:34:20;;;;;;;35.98;22.02;;;;;;;1.78;78.23;100933.19;1758053;81;21199;-79
2021/12/06 04:36:47;;;;;;;33.58;20.72;;;;;;;1.81;78.26;100933.11;1758246;81;20979;-80
2021/12/06 04:39:17;;;;;;;33.42;20.48;;;;;;;1.87;78.10;100924.41;1758222;81;20893;-79
2021/12/06 04:41:44;;;;;;;28.42;18.37;;;;;;;1.89;77.85;100934.28;1757928;80;20940;-81
2021/12/06 04:44:11;;;;;;;34.00;20.32;;;;;;;1.91;77.69;100927.77;1758309;80;20892;-81
2021/12/06 04:46:38;;;;;;;41.23;21.37;;;;;;;1.88;77.73;100913.16;1758181;81;21123;-78
2021/12/06 04:49:06;;;;;;;28.15;18.95;;;;;;;1.91;77.89;100913.54;1740950;81;20968;-77
2021/12/06 04:51:34;;;;;;;29.55;18.75;;;;;;;1.94;77.54;100909.62;1758146;81;20966;-79
2021/12/06 04:54:01;;;;;;;32.38;19.12;;;;;;;1.95;77.39;100926.38;1758313;80;20908;-78
2021/12/06 04:56:37;;;;;;;30.50;19.00;;;;;;;1.93;77.23;100914.36;1758296;81;20904;-80
2021/12/06 04:59:10;;;;;;;28.87;18.40;;;;;;;1.94;77.18;100917.38;1758702;81;21113;-81
2021/12/06 05:01:38;;;;;;;34.13;20.77;;;;;;;1.92;76.93;100921.28;1758633;81;21029;-81
2021/12/06 05:04:22;;;;;;;32.90;21.33;;;;;;;1.90;76.81;100909.27;1758301;80;20908;-83
2021/12/06 05:06:53;;;;;;;32.07;21.30;;;;;;;1.85;76.77;100907.62;1757593;81;20936;-82
2021/12/06 05:09:26;;;;;;;35.65;22.22;;;;;;;1.81;76.88;100930.53;1758066;80;20896;-82
2021/12/06 05:11:53;;;;;;;35.55;20.57;;;;;;;1.81;77.03;100956.83;1757905;81;21145;-81
2021/12/06 05:14:23;;;;;;;30.23;19.10;;;;;;;1.84;77.21;100963.23;1758228;80;20967;-82
2021/12/06 05:16:51;;;;;;;30.82;19.82;;;;;;;1.89;77.07;100964.44;1758028;80;20849;-81
2021/12/06 05:19:19;;;;;;;29.52;18.98;;;;;;;1.91;76.98;100971.73;1758197;80;20960;-79
2021/12/06 05:21:47;;;;;;;30.12;19.62;;;;;;;1.94;76.98;100985.91;1758030;80;20931;-83
2021/12/06 05:24:16;;;;;;;33.63;20.72;;;;;;;1.95;76.98;100979.84;1758357;80;21121;-85
2021/12/06 05:26:44;;;;;;;29.48;19.30;;;;;;;1.97;76.74;100984.10;1758350;80;20929;-85
2021/12/06 05:29:13;;;;;;;34.27;20.27;;;;;;;1.95;76.52;100980.69;1758134;80;20931;-85
2021/12/06 05:31:41;;;;;;;35.08;17.12;;;;;;;1.93;76.54;100975.14;1758627;81;20971;-87
2021/12/06 05:34:15;;;;;;;31.23;18.92;;;;;;;1.94;76.50;100974.27;1758553;80;20904;-83
2021/12/06 05:36:42;;;;;;;30.40;18.48;;;;;;;1.95;76.50;100979.40;1758473;81;21150;-86
2021/12/06 05:39:09;;;;;;;27.17;17.92;;;;;;;1.97;76.59;100985.39;1758917;80;20952;-89
2021/12/06 05:41:36;;;;;;;27.77;17.55;;;;;;;2.00;76.34;100978.89;1758877;80;21421;-85
2021/12/06 05:44:04;;;;;;;25.50;18.12;;;;;;;2.03;76.33;100980.11;1758571;80;20904;-85
2021/12/06 05:46:31;;;;;;;26.33;18.20;;;;;;;2.07;76.36;100979.63;1758399;81;21015;-87
2021/12/06 05:48:58;;;;;;;27.80;17.80;;;;;;;2.11;76.24;100976.08;1758152;80;21120;-84
2021/12/06 05:51:25;;;;;;;26.60;17.48;;;;;;;2.15;76.05;100967.83;1758373;81;20897;-85
2021/12/06 05:53:52;;;;;;;23.98;17.20;;;;;;;2.19;75.81;100965.14;1759083;81;20893;-85
2021/12/06 05:56:19;;;;;;;29.65;18.48;;;;;;;2.20;75.57;100964.28;1759014;81;20987;-84
2021/12/06 05:58:46;;;;;;;29.70;17.45;;;;;;;2.21;75.40;100971.59;1741262;81;20955;-87
2021/12/06 06:01:13;;;;;;;25.55;18.25;;;;;;;2.18;75.10;100967.34;1758039;81;21128;-88
2021/12/06 06:03:40;;;;;;;24.05;16.65;;;;;;;2.14;75.07;100965.69;1757971;80;20880;-83
2021/12/06 06:06:07;;;;;;;24.45;16.57;;;;;;;2.15;75.01;100966.53;1758828;80;20936;-90
2021/12/06 06:08:34;;;;;;;27.13;17.85;;;;;;;2.16;75.18;100975.56;1758529;81;21338;-87
2021/12/06 06:11:01;;;;;;;23.65;17.45;;;;;;;2.18;75.19;100979.39;1758626;80;21033;-88
2021/12/06 06:13:30;;;;;;;24.52;17.77;;;;;;;2.21;75.29;100980.64;1758425;81;20877;-85
2021/12/06 06:15:57;;;;;;;23.95;17.32;;;;;;;2.26;75.28;100983.98;1758510;81;21018;-88
2021/12/06 06:18:47;;;;;;;21.45;16.32;;;;;;;2.30;75.04;100980.46;1758534;81;21008;-92
2021/12/06 06:21:12;;;;;;;24.67;16.35;;;;;;;2.30;74.79;100983.50;1756425;81;21065;-89
2021/12/06 06:23:39;;;;;;;26.48;16.60;;;;;;;2.27;74.79;100981.38;1756937;80;20975;-85
2021/12/06 06:26:06;;;;;;;20.10;15.18;;;;;;;2.30;74.80;100984.79;1756657;81;21146;-86
2021/12/06 06:28:36;;;;;;;21.00;15.13;;;;;;;2.28;74.61;100989.53;1756151;80;21457;-87
2021/12/06 06:31:03;;;;;;;24.47;15.28;;;;;;;2.30;74.62;101000.31;1757437;80;20919;-86
2021/12/06 06:33:31;;;;;;;26.62;17.62;;;;;;;2.30;74.80;101005.49;1758514;81;20897;-86
2021/12/06 06:35:58;;;;;;;23.25;15.80;;;;;;;2.33;74.85;101011.44;1758293;81;20944;-85
2021/12/06 06:38:24;;;;;;;24.92;16.75;;;;;;;2.38;74.70;101016.11;1758621;80;21125;-86
2021/12/06 06:40:51;;;;;;;23.92;16.82;;;;;;;2.38;74.52;101026.46;1758453;81;21419;-86
2021/12/06 06:43:18;;;;;;;21.48;14.73;;;;;;;2.35;74.41;101029.09;1758461;80;20936;-87
2021/12/06 06:45:45;;;;;;;29.95;16.97;;;;;;;2.32;74.43;101025.28;1758683;80;20856;-86
2021/12/06 06:48:12;;;;;;;27.40;18.87;;;;;;;2.28;74.42;101023.18;1760184;81;20873;-87
2021/12/06 06:50:39;;;;;;;24.47;17.35;;;;;;;2.28;74.67;101022.33;1759172;80;21737;-85
2021/12/06 06:53:06;;;;;;;24.95;17.67;;;;;;;2.30;74.68;101027.04;1758310;81;21402;-84
2021/12/06 06:55:33;;;;;;;22.10;16.40;;;;;;;2.36;74.78;101022.20;1758167;80;21033;-89
2021/12/06 06:58:00;;;;;;;22.93;14.60;;;;;;;2.40;74.62;101021.23;1758460;81;20994;-85
2021/12/06 07:00:31;;;;;;;27.40;16.85;;;;;;;2.41;74.40;101019.92;1758410;80;20999;-83
2021/12/06 07:02:57;;;;;;;27.05;17.12;;;;;;;2.40;74.26;101023.41;1758136;80;21100;-84
2021/12/06 07:05:26;;;;;;;22.05;15.95;;;;;;;2.39;74.42;101025.56;1758105;80;20921;-84
2021/12/06 07:07:53;;;;;;;19.23;13.55;;;;;;;2.42;74.29;101031.99;1758473;80;20888;-84
2021/12/06 07:10:23;;;;;;;20.85;16.48;;;;;;;2.41;74.36;101028.12;1758037;81;20876;-82
2021/12/06 07:12:53;;;;;;;20.68;15.50;;;;;;;2.42;74.37;101022.94;1758249;81;20924;-84
2021/12/06 07:15:27;;;;;;;20.20;15.05;;;;;;;2.47;74.36;101032.75;1758218;81;21160;-83
2021/12/06 07:17:55;;;;;;;22.48;16.37;;;;;;;2.50;74.29;101024.06;1758385;81;20904;-84
2021/12/06 07:20:22;;;;;;;22.67;16.23;;;;;;;2.53;74.16;101025.73;1758273;81;20920;-85
2021/12/06 07:22:52;;;;;;;23.22;16.70;;;;;;;2.55;74.11;101027.84;1758511;80;20963;-84
2021/12/06 07:25:21;;;;;;;21.82;16.37;;;;;;;2.54;73.89;101030.89;1758482;81;20896;-84
2021/12/06 07:27:48;;;;;;;22.70;16.62;;;;;;;2.51;73.97;101026.20;1758552;81;21149;-84
2021/12/06 07:30:16;;;;;;;26.20;18.77;;;;;;;2.49;73.94;101023.22;1758717;81;20975;-83
2021/12/06 07:32:43;;;;;;;27.27;17.40;;;;;;;2.51;73.85;101026.20;1758368;81;20928;-83
2021/12/06 07:35:10;;;;;;;27.73;16.95;;;;;;;2.51;73.88;101024.91;1758263;81;20979;-82
2021/12/06 07:37:38;;;;;;;26.02;16.00;;;;;;;2.52;73.94;101029.22;1758302;80;21560;-88
2021/12/06 07:40:07;;;;;;;24.63;16.67;;;;;;;2.56;73.70;101036.89;1758153;81;21131;-83
2021/12/06 07:42:37;;;;;;;24.63;16.62;;;;;;;2.57;73.76;101032.11;1759278;80;20889;-83
2021/12/06 07:45:06;;;;;;;24.40;15.55;;;;;;;2.61;73.66;101038.09;1759022;81;20944;-85
2021/12/06 07:47:36;;;;;;;23.50;16.23;;;;;;;2.65;73.55;101041.88;1757959;80;20865;-85
2021/12/06 07:50:02;;;;;;;23.40;16.37;;;;;;;2.70;73.50;101035.30;1758167;81;20881;-83
2021/12/06 07:52:29;;;;;;;20.48;15.18;;;;;;;2.78;73.70;101032.54;1758029;81;21072;-84
2021/12/06 07:54:59;;;;;;;18.32;13.98;;;;;;;2.89;73.46;101033.16;1758148;81;21019;-83
2021/12/06 07:57:26;;;;;;;20.70;14.70;;;;;;;2.99;72.97;101030.79;1758378;81;20943;-85
2021/12/06 07:59:56;;;;;;;25.25;17.05;;;;;;;3.06;72.46;101031.51;1757999;81;20936;-84
2021/12/06 08:02:24;;;;;;;20.75;15.03;;;;;;;3.05;72.21;101029.37;1758114;81;20935;-85
2021/12/06 08:05:29;;;;;;;20.48;14.03;;;;;;;3.06;72.23;101033.65;1757923;80;21195;-84
2021/12/06 08:07:20;;;;;;;19.90;14.43;;;;;;;3.09;72.11;101027.55;1755722;81;20869;-86
2021/12/06 08:09:49;;;;;;;22.82;15.58;;;;;;;3.13;72.11;101022.70;1758154;80;21003;-83
2021/12/06 08:12:19;;;;;;;21.35;15.38;;;;;;;3.16;71.69;101018.77;1758301;81;21433;-80
2021/12/06 08:14:46;;;;;;;28.70;17.87;;;;;;;3.18;71.73;101014.82;1758542;81;21500;-84
2021/12/06 08:17:15;;;;;;;28.85;19.02;;;;;;;3.24;71.77;101006.91;1758223;81;21113;-86
2021/12/06 08:19:41;;;;;;;28.77;19.05;;;;;;;3.27;71.52;101005.11;1758449;81;20884;-84
2021/12/06 08:22:08;;;;;;;25.48;18.23;;;;;;;3.31;71.26;100999.39;1758016;81;20967;-85
2021/12/06 08:24:35;;;;;;;22.98;17.70;;;;;;;3.30;71.16;100996.41;1758396;81;20924;-83
2021/12/06 08:27:02;;;;;;;29.85;18.75;;;;;;;3.30;71.13;100993.81;1758335;81;20888;-86
2021/12/06 08:29:30;;;;;;;25.57;18.27;;;;;;;3.29;70.91;100992.09;1758219;81;21146;-84
2021/12/06 08:31:56;;;;;;;30.30;18.00;;;;;;;3.28;71.05;100993.00;1758347;81;20963;-85
2021/12/06 08:34:23;;;;;;;24.87;17.17;;;;;;;3.27;71.15;100991.31;1758285;81;20912;-84
2021/12/06 08:36:50;;;;;;;25.12;17.02;;;;;;;3.32;71.18;100992.05;1758487;81;20955;-82
2021/12/06 08:39:17;;;;;;;27.42;18.87;;;;;;;3.36;71.03;100990.21;1759499;81;20995;-84
2021/12/06 08:41:44;;;;;;;28.47;19.50;;;;;;;3.40;71.10;100989.25;1758155;81;21122;-85
2021/12/06 08:44:10;;;;;;;31.42;19.90;;;;;;;3.46;71.31;100984.77;1758184;81;20913;-85
2021/12/06 08:46:39;;;;;;;29.48;19.30;;;;;;;3.57;71.10;100984.50;1758251;81;20944;-87
2021/12/06 08:49:08;;;;;;;24.20;18.67;;;;;;;3.66;70.81;100993.80;1758064;81;21014;-86
2021/12/06 08:51:46;;;;;;;28.30;18.62;;;;;;;3.71;70.65;100986.74;1758406;81;20888;-86
2021/12/06 08:54:16;;;;;;;29.05;18.95;;;;;;;3.78;70.69;100993.92;1752670;81;20993;-85
2021/12/06 08:56:44;;;;;;;31.52;20.30;;;;;;;3.85;70.65;100988.55;1758256;81;20916;-85
2021/12/06 08:59:10;;;;;;;28.42;18.75;;;;;;;3.92;70.58;100986.64;1758206;81;20979;-87
2021/12/06 09:01:38;;;;;;;29.65;19.85;;;;;;;3.98;70.46;100977.41;1758118;81;20928;-87
2021/12/06 09:04:08;;;;;;;37.10;20.92;;;;;;;4.04;70.33;100978.97;1758299;81;20841;-85
2021/12/06 09:06:33;;;;;;;31.37;19.48;;;;;;;4.08;70.09;100974.10;1758334;81;21833;-86
2021/12/06 09:09:03;;;;;;;29.00;19.40;;;;;;;4.07;69.99;100974.56;1758479;81;20897;-86
2021/12/06 09:11:30;;;;;;;29.12;18.87;;;;;;;4.07;69.88;100966.77;1758642;81;20889;-84
2021/12/06 09:13:57;;;;;;;24.27;17.50;;;;;;;4.06;69.96;100965.51;1758064;81;21087;-87
2021/12/06 09:16:24;;;;;;;25.43;18.07;;;;;;;4.09;69.95;100966.71;1758228;81;20924;-85
2021/12/06 09:18:53;;;;;;;24.12;17.12;;;;;;;4.12;69.88;100959.70;1758158;80;21140;-86
2021/12/06 09:21:23;;;;;;;28.75;17.87;;;;;;;4.12;69.71;100954.97;1757931;80;20987;-86
2021/12/06 09:23:52;;;;;;;27.50;17.45;;;;;;;4.10;69.78;100952.41;1758203;80;20916;-86
2021/12/06 09:26:19;;;;;;;24.72;18.48;;;;;;;4.11;69.92;100956.72;1757711;81;20912;-84
2021/12/06 09:28:47;;;;;;;26.75;18.23;;;;;;;4.18;70.09;100967.78;1758170;81;21543;-85
2021/12/06 09:31:16;;;;;;;28.52;20.20;;;;;;;4.20;69.69;100965.12;1759216;81;21152;-86
2021/12/06 09:33:43;;;;;;;27.65;18.25;;;;;;;4.15;69.67;100971.28;1759408;81;21342;-85
2021/12/06 09:36:12;;;;;;;26.77;18.50;;;;;;;4.13;69.98;100967.03;1758323;80;20904;-86
2021/12/06 09:38:42;;;;;;;23.85;17.52;;;;;;;4.13;69.83;100971.77;1758331;81;21453;-84
2021/12/06 09:41:13;;;;;;;31.12;20.00;;;;;;;4.09;70.00;100964.11;1758074;81;20904;-83
2021/12/06 09:43:41;;;;;;;29.65;19.75;;;;;;;4.08;70.22;100968.46;1758355;81;21121;-83
2021/12/06 09:46:11;;;;;;;33.02;20.32;;;;;;;4.09;70.48;100961.09;1758257;81;20833;-88
2021/12/06 09:48:40;;;;;;;25.30;17.77;;;;;;;4.17;70.74;100963.47;1758473;81;20888;-86
2021/12/06 09:51:12;;;;;;;26.68;18.45;;;;;;;4.28;70.62;100973.55;1758249;81;20983;-84
2021/12/06 09:53:41;;;;;;;26.17;18.35;;;;;;;4.38;70.45;100966.34;1758658;80;20893;-85
2021/12/06 09:56:12;;;;;;;28.57;16.35;;;;;;;4.46;69.86;100953.99;1758139;81;21896;-85
2021/12/06 09:58:39;;;;;;;23.52;17.48;;;;;;;4.49;69.80;100949.58;1758426;81;20876;-80
2021/12/06 10:01:14;;;;;;;23.22;17.50;;;;;;;4.54;69.80;100950.73;1758220;81;21010;-81
2021/12/06 10:03:41;;;;;;;24.43;16.82;;;;;;;4.61;69.40;100949.65;1758502;81;21358;-80
2021/12/06 10:06:08;;;;;;;28.57;18.52;;;;;;;4.67;69.00;100939.08;1758149;81;21488;-79
2021/12/06 10:08:38;;;;;;;25.40;16.97;;;;;;;4.72;69.08;100943.67;1758117;81;21137;-80
2021/12/06 10:11:06;;;;;;;21.80;16.62;;;;;;;4.77;69.00;100929.25;1757955;80;20928;-80
2021/12/06 10:13:35;;;;;;;25.17;17.87;;;;;;;4.84;68.50;100929.45;1758250;81;21314;-77
2021/12/06 10:16:03;;;;;;;24.87;16.75;;;;;;;4.88;67.84;100945.35;1757975;80;20869;-81
2021/12/06 10:18:31;;;;;;;24.25;16.60;;;;;;;4.83;67.80;100943.36;1758053;80;20892;-82
2021/12/06 10:20:58;;;;;;;23.77;17.32;;;;;;;4.82;67.72;100935.59;1758204;81;21088;-81
2021/12/06 10:23:25;;;;;;;21.65;16.10;;;;;;;4.80;67.93;100936.09;1758207;80;20920;-81
2021/12/06 10:25:52;;;;;;;22.17;16.02;;;;;;;4.81;67.81;100936.51;1758561;80;20893;-80
2021/12/06 10:28:25;;;;;;;25.85;16.17;;;;;;;4.82;67.87;100922.15;1759049;81;20920;-81
2021/12/06 10:30:56;;;;;;;28.98;15.93;;;;;;;4.86;67.95;100917.27;1758205;80;20924;-80
2021/12/06 10:33:27;;;;;;;22.48;16.02;;;;;;;4.93;68.07;100920.06;1758703;81;21366;-80
2021/12/06 10:35:58;;;;;;;20.25;15.28;;;;;;;5.05;67.92;100918.84;1757852;80;20884;-84
2021/12/06 10:38:33;;;;;;;19.77;16.17;;;;;;;5.15;67.66;100918.08;1758456;81;20881;-81
2021/12/06 10:41:06;;;;;;;19.50;15.45;;;;;;;5.26;67.56;100912.53;1758197;80;20976;-82
2021/12/06 10:43:34;;;;;;;21.42;15.90;;;;;;;5.34;66.93;100908.78;1758371;80;26945;-82
2021/12/06 10:46:02;;;;;;;25.65;17.20;;;;;;;5.38;66.63;100903.00;1758123;81;21117;-82
2021/12/06 10:48:31;;;;;;;24.85;17.05;;;;;;;5.39;66.73;100906.86;1758537;81;21417;-80
2021/12/06 10:51:02;;;;;;;25.97;17.10;;;;;;;5.47;66.47;100903.14;1758093;81;20956;-81
2021/12/06 10:53:36;;;;;;;21.77;15.32;;;;;;;5.54;66.51;100904.66;1758269;81;20935;-81
2021/12/06 10:56:01;;;;;;;28.67;18.10;;;;;;;5.62;65.89;100909.12;1758025;80;20963;-82
2021/12/06 10:58:30;;;;;;;22.50;16.37;;;;;;;5.60;65.99;100896.61;1758059;80;21533;-82
2021/12/06 11:01:08;;;;;;;25.37;17.60;;;;;;;5.59;65.86;100889.27;1758153;81;21584;-82
2021/12/06 11:03:42;;;;;;;26.68;17.30;;;;;;;5.54;66.02;100888.59;1742999;81;20877;-82
2021/12/06 11:06:14;;;;;;;28.80;18.30;;;;;;;5.50;66.03;100890.05;1758071;80;20963;-83
2021/12/06 11:08:41;;;;;;;21.33;16.25;;;;;;;5.45;66.15;100888.04;1758432;81;20935;-80
2021/12/06 11:11:14;;;;;;;24.87;17.20;;;;;;;5.37;66.30;100890.45;1758215;80;21093;-83
2021/12/06 11:13:47;;;;;;;23.12;16.40;;;;;;;5.34;66.50;100892.33;1741398;81;21401;-80
2021/12/06 11:16:27;;;;;;;26.45;16.85;;;;;;;5.35;66.72;100891.42;1758157;81;20884;-81
2021/12/06 11:19:03;;;;;;;23.62;16.65;;;;;;;5.37;66.83;100893.52;1758205;81;21013;-80
2021/12/06 11:21:46;;;;;;;24.32;15.15;;;;;;;5.38;66.90;100895.20;1758070;81;20938;-79
2021/12/06 11:24:26;;;;;;;27.02;17.23;;;;;;;5.44;67.14;100896.76;1751023;80;21084;-80
2021/12/06 11:27:04;;;;;;;24.20;16.48;;;;;;;5.50;66.86;100903.05;1744744;82;20913;-81
2021/12/06 11:29:41;;;;;;;21.95;14.53;;;;;;;5.47;66.74;100900.12;1744891;81;20932;-76
2021/12/06 11:32:18;;;;;;;29.15;17.85;;;;;;;5.46;66.71;100895.80;1744739;81;20889;-79
2021/12/06 11:34:55;;;;;;;25.00;17.40;;;;;;;5.44;67.01;100878.55;1744930;81;20885;-80
2021/12/06 11:37:32;;;;;;;24.63;17.30;;;;;;;5.43;66.84;100879.02;1744880;80;22179;-83
2021/12/06 11:40:15;;;;;;;24.23;17.12;;;;;;;5.40;67.00;100880.39;1744897;80;20940;-78
2021/12/06 11:43:05;;;;;;;24.80;16.40;;;;;;;5.33;67.12;100885.41;1744692;82;20928;-82